TimeCST,TemperatureF,Dew PointF,Humidity,Sea Level PressureIn,VisibilityMPH,Wind Direction,Wind SpeedMPH,Gust SpeedMPH,PrecipitationIn,Events,Conditions,WindDirDegrees,DateUTC
12:15 AM,17.6,10.4,73,30.52,10.0,NW,18.4,24.2,N/A,,Overcast,320,2013-11-22 06:15:00
12:35 AM,17.6,10.4,73,30.52,10.0,NW,16.1,-,N/A,,Overcast,320,2013-11-22 06:35:00
12:55 AM,17.6,10.4,73,30.53,10.0,NW,15.0,21.9,N/A,,Overcast,320,2013-11-22 06:55:00
1:15 AM,17.6,10.4,73,30.53,10.0,NW,17.3,25.3,N/A,,Overcast,320,2013-11-22 07:15:00
1:35 AM,17.6,10.4,73,30.52,10.0,NW,17.3,23.0,N/A,,Mostly Cloudy,320,2013-11-22 07:35:00
1:55 AM,15.8,10.4,79,30.53,10.0,NW,17.3,25.3,N/A,,Partly Cloudy,320,2013-11-22 07:55:00
2:15 AM,15.8,8.6,73,30.54,10.0,NNW,12.7,-,N/A,,Clear,330,2013-11-22 08:15:00
2:35 AM,15.8,8.6,73,30.54,10.0,NW,15.0,19.6,N/A,,Clear,320,2013-11-22 08:35:00
2:55 AM,15.8,8.6,73,30.54,10.0,NW,12.7,-,N/A,,Clear,320,2013-11-22 08:55:00
3:15 AM,15.8,8.6,73,30.54,10.0,NW,15.0,-,N/A,,Clear,320,2013-11-22 09:15:00
3:35 AM,14.0,6.8,73,30.54,10.0,NW,12.7,-,N/A,,Clear,320,2013-11-22 09:35:00
3:55 AM,12.2,6.8,79,30.54,10.0,NW,12.7,-,N/A,,Clear,320,2013-11-22 09:55:00
4:15 AM,12.2,6.8,79,30.54,10.0,NW,12.7,-,N/A,,Clear,320,2013-11-22 10:15:00
4:35 AM,12.2,6.8,79,30.54,10.0,NW,10.4,-,N/A,,Clear,320,2013-11-22 10:35:00
4:55 AM,10.4,6.8,85,30.55,10.0,NW,10.4,-,N/A,,Clear,320,2013-11-22 10:55:00
5:15 AM,10.4,5.0,79,30.55,10.0,NW,9.2,-,N/A,,Clear,320,2013-11-22 11:15:00
5:35 AM,10.4,5.0,79,30.55,10.0,NW,8.1,-,N/A,,Clear,320,2013-11-22 11:35:00
5:55 AM,10.4,5.0,79,30.56,10.0,NW,10.4,-,N/A,,Clear,320,2013-11-22 11:55:00
6:15 AM,8.6,3.2,79,30.56,10.0,NW,10.4,-,N/A,,Clear,310,2013-11-22 12:15:00
6:35 AM,8.6,3.2,79,30.57,10.0,NW,12.7,-,N/A,,Clear,310,2013-11-22 12:35:00
6:55 AM,8.6,3.2,79,30.57,10.0,NW,10.4,-,N/A,,Clear,320,2013-11-22 12:55:00
7:15 AM,8.6,3.2,79,30.55,10.0,NW,8.1,-,N/A,,Clear,320,2013-11-22 13:15:00
7:35 AM,8.6,1.4,73,30.56,10.0,NW,4.6,-,N/A,,Clear,310,2013-11-22 13:35:00
7:55 AM,8.6,3.2,79,30.56,10.0,NW,5.8,-,N/A,,Clear,310,2013-11-22 13:55:00
8:15 AM,8.6,3.2,79,30.58,10.0,NW,10.4,-,N/A,,Clear,320,2013-11-22 14:15:00
8:35 AM,10.4,5.0,79,30.59,10.0,NW,13.8,-,N/A,,Clear,320,2013-11-22 14:35:00
8:55 AM,12.2,3.2,67,30.59,10.0,NW,13.8,19.6,N/A,,Clear,320,2013-11-22 14:55:00
9:15 AM,14.0,5.0,67,30.59,10.0,NW,10.4,-,N/A,,Clear,320,2013-11-22 15:15:00
9:35 AM,15.8,5.0,62,30.59,10.0,NW,9.2,-,N/A,,Clear,320,2013-11-22 15:35:00
9:55 AM,17.6,3.2,53,30.59,10.0,NW,8.1,-,N/A,,Clear,320,2013-11-22 15:55:00
10:15 AM,17.6,5.0,58,30.59,10.0,WNW,6.9,-,N/A,,Clear,300,2013-11-22 16:15:00
10:35 AM,19.4,6.8,58,30.60,10.0,WNW,10.4,-,N/A,,Clear,290,2013-11-22 16:35:00
10:55 AM,23.0,6.8,50,30.59,10.0,West,8.1,-,N/A,,Clear,270,2013-11-22 16:55:00
11:15 AM,24.8,6.8,46,30.58,10.0,WNW,10.4,-,N/A,,Clear,290,2013-11-22 17:15:00
11:35 AM,26.6,6.8,43,30.57,10.0,West,8.1,-,N/A,,Clear,280,2013-11-22 17:35:00
11:55 AM,28.4,6.8,40,30.57,10.0,WNW,9.2,-,N/A,,Clear,290,2013-11-22 17:55:00
12:15 PM,30.2,6.8,37,30.56,10.0,WSW,9.2,-,N/A,,Clear,250,2013-11-22 18:15:00
12:35 PM,30.2,6.8,37,30.55,10.0,WSW,9.2,-,N/A,,Clear,240,2013-11-22 18:35:00
12:55 PM,30.2,6.8,37,30.55,10.0,SW,11.5,-,N/A,,Clear,230,2013-11-22 18:55:00
1:15 PM,32.0,6.8,35,30.54,10.0,SW,12.7,-,N/A,,Clear,230,2013-11-22 19:15:00
1:35 PM,32.0,6.8,35,30.52,10.0,WSW,15.0,-,N/A,,Clear,240,2013-11-22 19:35:00
1:55 PM,33.8,6.8,32,30.51,10.0,SW,16.1,-,N/A,,Clear,230,2013-11-22 19:55:00
2:15 PM,33.8,6.8,32,30.50,10.0,SW,16.1,-,N/A,,Clear,220,2013-11-22 20:15:00
2:35 PM,33.8,8.6,35,30.50,10.0,SW,15.0,-,N/A,,Clear,230,2013-11-22 20:35:00
2:55 PM,33.8,6.8,32,30.49,10.0,WSW,15.0,-,N/A,,Clear,250,2013-11-22 20:55:00
3:15 PM,33.8,6.8,32,30.49,10.0,WSW,16.1,-,N/A,,Clear,250,2013-11-22 21:15:00
3:35 PM,33.8,6.8,32,30.49,10.0,West,17.3,-,N/A,,Clear,260,2013-11-22 21:35:00
3:55 PM,32.0,6.8,35,30.50,10.0,WSW,12.7,-,N/A,,Clear,250,2013-11-22 21:55:00
4:15 PM,30.2,8.6,40,30.49,10.0,WSW,16.1,20.7,N/A,,Clear,250,2013-11-22 22:15:00
4:35 PM,28.4,8.6,43,30.49,10.0,WSW,15.0,-,N/A,,Clear,250,2013-11-22 22:35:00
4:55 PM,28.4,8.6,43,30.48,10.0,WSW,15.0,20.7,N/A,,Clear,250,2013-11-22 22:55:00
5:15 PM,28.4,8.6,43,30.49,10.0,WSW,12.7,-,N/A,,Clear,250,2013-11-22 23:15:00
5:35 PM,26.6,8.6,47,30.50,10.0,WSW,10.4,-,N/A,,Clear,250,2013-11-22 23:35:00
5:55 PM,24.8,10.4,54,30.50,10.0,West,10.4,-,N/A,,Clear,260,2013-11-22 23:55:00
6:15 PM,26.6,10.4,51,30.50,10.0,West,11.5,-,N/A,,Clear,270,2013-11-23 00:15:00
6:35 PM,24.8,8.6,50,30.51,10.0,West,11.5,-,N/A,,Clear,280,2013-11-23 00:35:00
6:55 PM,24.8,8.6,50,30.51,10.0,West,12.7,-,N/A,,Clear,280,2013-11-23 00:55:00
7:15 PM,24.8,8.6,50,30.52,10.0,WNW,13.8,-,N/A,,Clear,300,2013-11-23 01:15:00
7:35 PM,24.8,8.6,50,30.54,10.0,NW,12.7,-,N/A,,Clear,310,2013-11-23 01:35:00
7:55 PM,23.0,10.4,59,30.55,10.0,NW,11.5,-,N/A,,Clear,320,2013-11-23 01:55:00
8:15 PM,21.2,10.4,63,30.55,10.0,NNW,17.3,20.7,N/A,,Clear,330,2013-11-23 02:15:00
8:35 PM,21.2,10.4,63,30.56,10.0,NNW,13.8,20.7,N/A,,Clear,330,2013-11-23 02:35:00
8:55 PM,21.2,10.4,63,30.55,10.0,NNW,15.0,-,N/A,,Clear,330,2013-11-23 02:55:00
9:15 PM,21.2,10.4,63,30.56,10.0,NNW,23.0,26.5,N/A,,Clear,330,2013-11-23 03:15:00
9:35 PM,19.4,6.8,58,30.57,10.0,NNW,16.1,-,N/A,,Clear,330,2013-11-23 03:35:00
9:55 PM,19.4,8.6,63,30.58,10.0,NNW,16.1,24.2,N/A,,Clear,340,2013-11-23 03:55:00
10:15 PM,19.4,8.6,63,30.59,10.0,NNW,18.4,24.2,N/A,,Clear,330,2013-11-23 04:15:00
10:35 PM,17.6,6.8,63,30.60,10.0,NW,18.4,25.3,N/A,,Clear,320,2013-11-23 04:35:00
10:55 PM,15.8,3.2,58,30.59,10.0,NNW,23.0,28.8,N/A,,Clear,330,2013-11-23 04:55:00
11:15 PM,15.8,3.2,58,30.60,10.0,NNW,20.7,27.6,N/A,,Mostly Cloudy,330,2013-11-23 05:15:00
11:35 PM,14.0,3.2,62,30.60,10.0,NNW,21.9,27.6,N/A,,Mostly Cloudy,330,2013-11-23 05:35:00
11:55 PM,12.2,3.2,67,30.62,10.0,NNW,18.4,23.0,N/A,,Partly Cloudy,330,2013-11-23 05:55:00